sensor_id;sensor_type;location;lat;lon;timestamp;P1;durP1;ratioP1;P2;durP2;ratioP2
83634;SDS011;73596;49.482;11.238;2024-01-07T00:00:05;6.60;;;3.30;;
83634;SDS011;73596;49.482;11.238;2024-01-07T00:02:31;8.32;;;3.35;;
83634;SDS011;73596;49.482;11.238;2024-01-07T00:04:56;4.57;;;2.87;;
83634;SDS011;73596;49.482;11.238;2024-01-07T00:07:23;7.15;;;3.92;;
83634;SDS011;73596;49.482;11.238;2024-01-07T00:09:48;6.93;;;4.05;;
83634;SDS011;73596;49.482;11.238;2024-01-07T00:12:14;6.68;;;3.45;;
83634;SDS011;73596;49.482;11.238;2024-01-07T00:14:39;6.40;;;3.80;;
83634;SDS011;73596;49.482;11.238;2024-01-07T00:17:05;5.18;;;3.28;;
83634;SDS011;73596;49.482;11.238;2024-01-07T00:19:30;3.95;;;2.40;;
83634;SDS011;73596;49.482;11.238;2024-01-07T00:21:56;6.10;;;2.90;;
83634;SDS011;73596;49.482;11.238;2024-01-07T00:24:22;7.32;;;2.72;;
83634;SDS011;73596;49.482;11.238;2024-01-07T00:26:50;5.88;;;2.78;;
83634;SDS011;73596;49.482;11.238;2024-01-07T00:29:15;4.97;;;2.37;;
83634;SDS011;73596;49.482;11.238;2024-01-07T00:31:41;5.55;;;2.83;;
83634;SDS011;73596;49.482;11.238;2024-01-07T00:34:06;6.25;;;2.53;;
83634;SDS011;73596;49.482;11.238;2024-01-07T00:36:31;4.03;;;2.10;;
83634;SDS011;73596;49.482;11.238;2024-01-07T00:38:57;5.83;;;2.80;;
83634;SDS011;73596;49.482;11.238;2024-01-07T00:41:22;5.13;;;2.40;;
83634;SDS011;73596;49.482;11.238;2024-01-07T00:43:47;6.55;;;3.85;;
83634;SDS011;73596;49.482;11.238;2024-01-07T00:46:13;5.10;;;2.43;;
83634;SDS011;73596;49.482;11.238;2024-01-07T00:48:38;5.67;;;2.87;;
83634;SDS011;73596;49.482;11.238;2024-01-07T00:51:03;6.50;;;2.90;;
83634;SDS011;73596;49.482;11.238;2024-01-07T00:53:29;3.75;;;2.38;;
83634;SDS011;73596;49.482;11.238;2024-01-07T00:55:54;6.30;;;3.10;;
83634;SDS011;73596;49.482;11.238;2024-01-07T00:58:19;3.47;;;1.90;;
83634;SDS011;73596;49.482;11.238;2024-01-07T01:00:44;3.97;;;1.87;;
83634;SDS011;73596;49.482;11.238;2024-01-07T01:03:10;4.17;;;1.80;;
83634;SDS011;73596;49.482;11.238;2024-01-07T01:05:35;4.00;;;2.00;;
83634;SDS011;73596;49.482;11.238;2024-01-07T01:08:01;3.67;;;2.15;;
83634;SDS011;73596;49.482;11.238;2024-01-07T01:10:28;4.10;;;1.70;;
83634;SDS011;73596;49.482;11.238;2024-01-07T01:12:53;2.83;;;1.92;;
83634;SDS011;73596;49.482;11.238;2024-01-07T01:15:19;3.65;;;2.15;;
83634;SDS011;73596;49.482;11.238;2024-01-07T01:17:44;4.78;;;2.58;;
83634;SDS011;73596;49.482;11.238;2024-01-07T01:20:10;5.50;;;2.40;;
83634;SDS011;73596;49.482;11.238;2024-01-07T01:22:35;4.43;;;2.55;;
83634;SDS011;73596;49.482;11.238;2024-01-07T01:25:01;3.67;;;2.13;;
83634;SDS011;73596;49.482;11.238;2024-01-07T01:27:28;5.63;;;1.98;;
83634;SDS011;73596;49.482;11.238;2024-01-07T01:29:53;3.00;;;1.80;;
83634;SDS011;73596;49.482;11.238;2024-01-07T01:32:18;2.80;;;2.00;;
83634;SDS011;73596;49.482;11.238;2024-01-07T01:34:44;4.27;;;2.00;;
83634;SDS011;73596;49.482;11.238;2024-01-07T01:37:09;3.43;;;2.00;;
83634;SDS011;73596;49.482;11.238;2024-01-07T01:39:34;3.73;;;2.10;;
83634;SDS011;73596;49.482;11.238;2024-01-07T01:42:00;5.45;;;2.83;;
83634;SDS011;73596;49.482;11.238;2024-01-07T01:44:25;8.17;;;3.40;;
83634;SDS011;73596;49.482;11.238;2024-01-07T01:46:52;9.57;;;4.30;;
83634;SDS011;73596;49.482;11.238;2024-01-07T01:49:19;6.20;;;3.03;;
83634;SDS011;73596;49.482;11.238;2024-01-07T01:51:44;5.03;;;2.65;;
83634;SDS011;73596;49.482;11.238;2024-01-07T01:54:09;10.07;;;2.87;;
83634;SDS011;73596;49.482;11.238;2024-01-07T01:56:35;8.73;;;3.28;;
83634;SDS011;73596;49.482;11.238;2024-01-07T01:59:00;7.30;;;3.42;;
83634;SDS011;73596;49.482;11.238;2024-01-07T02:01:25;12.67;;;3.40;;
83634;SDS011;73596;49.482;11.238;2024-01-07T02:03:51;6.22;;;2.88;;
83634;SDS011;73596;49.482;11.238;2024-01-07T02:06:18;5.72;;;3.13;;
83634;SDS011;73596;49.482;11.238;2024-01-07T02:08:45;10.02;;;3.85;;
83634;SDS011;73596;49.482;11.238;2024-01-07T02:11:14;9.55;;;4.32;;
83634;SDS011;73596;49.482;11.238;2024-01-07T02:13:41;7.20;;;2.65;;
83634;SDS011;73596;49.482;11.238;2024-01-07T02:16:06;7.83;;;4.03;;
83634;SDS011;73596;49.482;11.238;2024-01-07T02:18:31;10.87;;;4.73;;
83634;SDS011;73596;49.482;11.238;2024-01-07T02:20:57;12.27;;;4.45;;
83634;SDS011;73596;49.482;11.238;2024-01-07T02:23:22;7.53;;;4.00;;
83634;SDS011;73596;49.482;11.238;2024-01-07T02:25:47;6.37;;;3.47;;
83634;SDS011;73596;49.482;11.238;2024-01-07T02:28:13;6.87;;;3.87;;
83634;SDS011;73596;49.482;11.238;2024-01-07T02:30:38;6.63;;;3.23;;
83634;SDS011;73596;49.482;11.238;2024-01-07T02:33:03;6.85;;;4.10;;
83634;SDS011;73596;49.482;11.238;2024-01-07T02:35:29;9.82;;;4.72;;
83634;SDS011;73596;49.482;11.238;2024-01-07T02:37:54;5.80;;;3.60;;
83634;SDS011;73596;49.482;11.238;2024-01-07T02:40:19;6.60;;;3.10;;
83634;SDS011;73596;49.482;11.238;2024-01-07T02:42:45;7.07;;;4.03;;
83634;SDS011;73596;49.482;11.238;2024-01-07T02:45:10;5.73;;;2.90;;
83634;SDS011;73596;49.482;11.238;2024-01-07T02:47:35;6.65;;;3.50;;
83634;SDS011;73596;49.482;11.238;2024-01-07T02:50:00;9.63;;;4.30;;
83634;SDS011;73596;49.482;11.238;2024-01-07T02:52:26;6.10;;;3.60;;
83634;SDS011;73596;49.482;11.238;2024-01-07T02:54:51;6.55;;;3.15;;
83634;SDS011;73596;49.482;11.238;2024-01-07T02:57:17;9.77;;;4.77;;
83634;SDS011;73596;49.482;11.238;2024-01-07T02:59:42;8.93;;;3.93;;
83634;SDS011;73596;49.482;11.238;2024-01-07T03:02:08;7.68;;;3.20;;
83634;SDS011;73596;49.482;11.238;2024-01-07T03:04:33;7.67;;;3.17;;
83634;SDS011;73596;49.482;11.238;2024-01-07T03:06:59;5.23;;;2.50;;
83634;SDS011;73596;49.482;11.238;2024-01-07T03:09:24;5.47;;;3.10;;
83634;SDS011;73596;49.482;11.238;2024-01-07T03:11:50;6.75;;;2.88;;
83634;SDS011;73596;49.482;11.238;2024-01-07T03:14:15;7.23;;;3.00;;
83634;SDS011;73596;49.482;11.238;2024-01-07T03:16:42;5.47;;;2.72;;
83634;SDS011;73596;49.482;11.238;2024-01-07T03:19:08;7.23;;;2.97;;
83634;SDS011;73596;49.482;11.238;2024-01-07T03:21:33;5.73;;;3.27;;
83634;SDS011;73596;49.482;11.238;2024-01-07T03:23:58;7.40;;;3.10;;
83634;SDS011;73596;49.482;11.238;2024-01-07T03:26:24;8.20;;;3.30;;
83634;SDS011;73596;49.482;11.238;2024-01-07T03:28:49;7.55;;;3.63;;
83634;SDS011;73596;49.482;11.238;2024-01-07T03:31:16;5.77;;;3.10;;
83634;SDS011;73596;49.482;11.238;2024-01-07T03:33:43;7.57;;;3.47;;
83634;SDS011;73596;49.482;11.238;2024-01-07T03:36:09;7.30;;;3.37;;
83634;SDS011;73596;49.482;11.238;2024-01-07T03:38:35;7.38;;;3.10;;
83634;SDS011;73596;49.482;11.238;2024-01-07T03:41:01;4.28;;;2.78;;
83634;SDS011;73596;49.482;11.238;2024-01-07T03:43:27;5.95;;;2.97;;
83634;SDS011;73596;49.482;11.238;2024-01-07T03:45:52;9.53;;;4.03;;
83634;SDS011;73596;49.482;11.238;2024-01-07T03:48:17;7.37;;;3.63;;
83634;SDS011;73596;49.482;11.238;2024-01-07T03:50:43;5.10;;;2.40;;
83634;SDS011;73596;49.482;11.238;2024-01-07T03:53:08;5.65;;;2.88;;
83634;SDS011;73596;49.482;11.238;2024-01-07T03:55:34;7.90;;;3.47;;
83634;SDS011;73596;49.482;11.238;2024-01-07T03:57:59;5.43;;;2.90;;
83634;SDS011;73596;49.482;11.238;2024-01-07T04:00:25;6.87;;;3.03;;
83634;SDS011;73596;49.482;11.238;2024-01-07T04:02:51;8.98;;;3.70;;
83634;SDS011;73596;49.482;11.238;2024-01-07T04:05:16;5.37;;;3.23;;
83634;SDS011;73596;49.482;11.238;2024-01-07T04:07:41;5.97;;;3.17;;
83634;SDS011;73596;49.482;11.238;2024-01-07T04:10:06;7.87;;;3.23;;
83634;SDS011;73596;49.482;11.238;2024-01-07T04:12:32;7.45;;;3.70;;
83634;SDS011;73596;49.482;11.238;2024-01-07T04:14:57;6.43;;;2.83;;
83634;SDS011;73596;49.482;11.238;2024-01-07T04:17:23;7.50;;;3.17;;
83634;SDS011;73596;49.482;11.238;2024-01-07T04:19:49;6.15;;;3.03;;
83634;SDS011;73596;49.482;11.238;2024-01-07T04:22:14;6.93;;;3.63;;
83634;SDS011;73596;49.482;11.238;2024-01-07T04:24:42;6.97;;;3.33;;
83634;SDS011;73596;49.482;11.238;2024-01-07T04:27:08;6.78;;;3.60;;
83634;SDS011;73596;49.482;11.238;2024-01-07T04:29:34;6.22;;;2.60;;
83634;SDS011;73596;49.482;11.238;2024-01-07T04:31:59;5.07;;;3.13;;
83634;SDS011;73596;49.482;11.238;2024-01-07T04:34:24;5.77;;;2.73;;
83634;SDS011;73596;49.482;11.238;2024-01-07T04:36:50;6.63;;;3.45;;
83634;SDS011;73596;49.482;11.238;2024-01-07T04:39:15;6.80;;;3.55;;
83634;SDS011;73596;49.482;11.238;2024-01-07T04:41:41;6.80;;;3.25;;
83634;SDS011;73596;49.482;11.238;2024-01-07T04:44:06;6.80;;;3.92;;
83634;SDS011;73596;49.482;11.238;2024-01-07T04:46:37;5.00;;;2.70;;
83634;SDS011;73596;49.482;11.238;2024-01-07T04:49:04;7.88;;;3.25;;
83634;SDS011;73596;49.482;11.238;2024-01-07T04:51:30;7.30;;;3.47;;
83634;SDS011;73596;49.482;11.238;2024-01-07T04:53:56;5.82;;;3.47;;
83634;SDS011;73596;49.482;11.238;2024-01-07T04:56:21;6.83;;;3.97;;
83634;SDS011;73596;49.482;11.238;2024-01-07T04:58:46;7.07;;;3.13;;
83634;SDS011;73596;49.482;11.238;2024-01-07T05:01:11;6.73;;;2.83;;
83634;SDS011;73596;49.482;11.238;2024-01-07T05:03:38;5.55;;;3.00;;
83634;SDS011;73596;49.482;11.238;2024-01-07T05:06:03;6.80;;;3.33;;
83634;SDS011;73596;49.482;11.238;2024-01-07T05:08:29;6.25;;;2.80;;
83634;SDS011;73596;49.482;11.238;2024-01-07T05:10:55;7.38;;;2.60;;
83634;SDS011;73596;49.482;11.238;2024-01-07T05:13:20;6.70;;;2.90;;
83634;SDS011;73596;49.482;11.238;2024-01-07T05:15:45;6.50;;;3.15;;
83634;SDS011;73596;49.482;11.238;2024-01-07T05:18:12;5.68;;;2.13;;
83634;SDS011;73596;49.482;11.238;2024-01-07T05:20:37;6.25;;;3.00;;
83634;SDS011;73596;49.482;11.238;2024-01-07T05:23:02;4.60;;;1.88;;
83634;SDS011;73596;49.482;11.238;2024-01-07T05:25:28;5.28;;;2.80;;
83634;SDS011;73596;49.482;11.238;2024-01-07T05:27:53;4.95;;;2.17;;
83634;SDS011;73596;49.482;11.238;2024-01-07T05:30:19;8.10;;;3.47;;
83634;SDS011;73596;49.482;11.238;2024-01-07T05:32:44;5.82;;;2.80;;
83634;SDS011;73596;49.482;11.238;2024-01-07T05:35:09;5.63;;;2.10;;
83634;SDS011;73596;49.482;11.238;2024-01-07T05:37:35;5.45;;;2.53;;
83634;SDS011;73596;49.482;11.238;2024-01-07T05:40:00;5.93;;;2.80;;
83634;SDS011;73596;49.482;11.238;2024-01-07T05:42:26;5.80;;;3.10;;
83634;SDS011;73596;49.482;11.238;2024-01-07T05:44:51;4.88;;;2.30;;
83634;SDS011;73596;49.482;11.238;2024-01-07T05:47:16;5.67;;;3.03;;
83634;SDS011;73596;49.482;11.238;2024-01-07T05:49:42;6.33;;;2.50;;
83634;SDS011;73596;49.482;11.238;2024-01-07T05:52:07;6.88;;;2.42;;
83634;SDS011;73596;49.482;11.238;2024-01-07T05:54:32;5.77;;;3.20;;
83634;SDS011;73596;49.482;11.238;2024-01-07T05:56:58;5.50;;;3.10;;
83634;SDS011;73596;49.482;11.238;2024-01-07T05:59:24;6.63;;;2.45;;
83634;SDS011;73596;49.482;11.238;2024-01-07T06:01:49;5.37;;;2.17;;
83634;SDS011;73596;49.482;11.238;2024-01-07T06:04:14;4.90;;;2.03;;
83634;SDS011;73596;49.482;11.238;2024-01-07T06:06:39;4.53;;;2.33;;
83634;SDS011;73596;49.482;11.238;2024-01-07T06:09:05;4.10;;;2.60;;
83634;SDS011;73596;49.482;11.238;2024-01-07T06:11:30;3.43;;;1.80;;
83634;SDS011;73596;49.482;11.238;2024-01-07T06:13:55;6.57;;;3.53;;
83634;SDS011;73596;49.482;11.238;2024-01-07T06:16:20;6.07;;;2.70;;
83634;SDS011;73596;49.482;11.238;2024-01-07T06:18:46;6.90;;;2.67;;
83634;SDS011;73596;49.482;11.238;2024-01-07T06:21:11;5.50;;;2.73;;
83634;SDS011;73596;49.482;11.238;2024-01-07T06:23:37;6.67;;;2.17;;
83634;SDS011;73596;49.482;11.238;2024-01-07T06:26:03;5.03;;;2.40;;
83634;SDS011;73596;49.482;11.238;2024-01-07T06:28:28;7.28;;;2.83;;
83634;SDS011;73596;49.482;11.238;2024-01-07T06:30:53;6.13;;;2.67;;
83634;SDS011;73596;49.482;11.238;2024-01-07T06:33:19;5.67;;;2.53;;
83634;SDS011;73596;49.482;11.238;2024-01-07T06:35:45;7.95;;;3.58;;
83634;SDS011;73596;49.482;11.238;2024-01-07T06:38:11;4.72;;;2.65;;
83634;SDS011;73596;49.482;11.238;2024-01-07T06:40:36;4.57;;;2.80;;
83634;SDS011;73596;49.482;11.238;2024-01-07T06:43:01;9.17;;;3.83;;
83634;SDS011;73596;49.482;11.238;2024-01-07T06:45:27;6.83;;;3.37;;
83634;SDS011;73596;49.482;11.238;2024-01-07T06:47:52;10.75;;;3.63;;
83634;SDS011;73596;49.482;11.238;2024-01-07T06:50:18;5.28;;;2.90;;
83634;SDS011;73596;49.482;11.238;2024-01-07T06:52:44;5.80;;;3.05;;
83634;SDS011;73596;49.482;11.238;2024-01-07T06:55:10;5.67;;;3.00;;
83634;SDS011;73596;49.482;11.238;2024-01-07T06:57:35;8.60;;;3.83;;
83634;SDS011;73596;49.482;11.238;2024-01-07T07:00:01;6.17;;;3.43;;
83634;SDS011;73596;49.482;11.238;2024-01-07T07:02:27;6.05;;;3.30;;
83634;SDS011;73596;49.482;11.238;2024-01-07T07:04:53;6.93;;;2.70;;
83634;SDS011;73596;49.482;11.238;2024-01-07T07:07:18;6.10;;;2.90;;
83634;SDS011;73596;49.482;11.238;2024-01-07T07:09:44;7.88;;;3.35;;
83634;SDS011;73596;49.482;11.238;2024-01-07T07:12:09;6.07;;;3.13;;
83634;SDS011;73596;49.482;11.238;2024-01-07T07:14:35;8.30;;;3.00;;
83634;SDS011;73596;49.482;11.238;2024-01-07T07:17:00;7.13;;;4.37;;
83634;SDS011;73596;49.482;11.238;2024-01-07T07:19:26;8.20;;;3.70;;
83634;SDS011;73596;49.482;11.238;2024-01-07T07:21:51;9.33;;;4.00;;
83634;SDS011;73596;49.482;11.238;2024-01-07T07:24:16;7.63;;;3.30;;
83634;SDS011;73596;49.482;11.238;2024-01-07T07:26:41;7.47;;;3.63;;
83634;SDS011;73596;49.482;11.238;2024-01-07T07:29:08;8.02;;;3.63;;
83634;SDS011;73596;49.482;11.238;2024-01-07T07:31:36;9.82;;;4.65;;
83634;SDS011;73596;49.482;11.238;2024-01-07T07:34:03;8.50;;;4.20;;
83634;SDS011;73596;49.482;11.238;2024-01-07T07:36:29;7.25;;;3.58;;
83634;SDS011;73596;49.482;11.238;2024-01-07T07:38:54;7.43;;;3.35;;
83634;SDS011;73596;49.482;11.238;2024-01-07T07:41:19;7.53;;;3.23;;
83634;SDS011;73596;49.482;11.238;2024-01-07T07:43:45;7.13;;;3.23;;
83634;SDS011;73596;49.482;11.238;2024-01-07T07:46:10;8.43;;;3.43;;
83634;SDS011;73596;49.482;11.238;2024-01-07T07:48:36;9.52;;;4.55;;
83634;SDS011;73596;49.482;11.238;2024-01-07T07:51:02;9.77;;;4.33;;
83634;SDS011;73596;49.482;11.238;2024-01-07T07:53:27;8.90;;;3.65;;
83634;SDS011;73596;49.482;11.238;2024-01-07T07:55:54;8.47;;;4.03;;
83634;SDS011;73596;49.482;11.238;2024-01-07T07:58:19;9.10;;;4.70;;
83634;SDS011;73596;49.482;11.238;2024-01-07T08:00:45;7.50;;;3.88;;
83634;SDS011;73596;49.482;11.238;2024-01-07T08:03:10;7.68;;;4.45;;
83634;SDS011;73596;49.482;11.238;2024-01-07T08:05:36;9.18;;;4.53;;
83634;SDS011;73596;49.482;11.238;2024-01-07T08:08:01;7.22;;;3.40;;
83634;SDS011;73596;49.482;11.238;2024-01-07T08:10:27;8.50;;;4.50;;
83634;SDS011;73596;49.482;11.238;2024-01-07T08:12:53;9.10;;;4.22;;
83634;SDS011;73596;49.482;11.238;2024-01-07T08:15:19;11.10;;;4.43;;
83634;SDS011;73596;49.482;11.238;2024-01-07T08:17:44;11.00;;;4.60;;
83634;SDS011;73596;49.482;11.238;2024-01-07T08:20:09;8.57;;;4.27;;
83634;SDS011;73596;49.482;11.238;2024-01-07T08:22:35;8.75;;;3.65;;
83634;SDS011;73596;49.482;11.238;2024-01-07T08:25:00;11.50;;;6.03;;
83634;SDS011;73596;49.482;11.238;2024-01-07T08:27:26;11.73;;;6.30;;
83634;SDS011;73596;49.482;11.238;2024-01-07T08:29:52;11.30;;;4.53;;
83634;SDS011;73596;49.482;11.238;2024-01-07T08:32:17;10.85;;;4.53;;
83634;SDS011;73596;49.482;11.238;2024-01-07T08:34:44;6.72;;;3.80;;
83634;SDS011;73596;49.482;11.238;2024-01-07T08:37:09;10.87;;;5.60;;
83634;SDS011;73596;49.482;11.238;2024-01-07T08:39:34;7.47;;;3.90;;
83634;SDS011;73596;49.482;11.238;2024-01-07T08:42:00;8.07;;;4.53;;
83634;SDS011;73596;49.482;11.238;2024-01-07T08:44:25;8.67;;;4.03;;
83634;SDS011;73596;49.482;11.238;2024-01-07T08:46:50;8.53;;;4.63;;
83634;SDS011;73596;49.482;11.238;2024-01-07T08:49:15;10.40;;;3.63;;
83634;SDS011;73596;49.482;11.238;2024-01-07T08:51:41;11.70;;;5.23;;
83634;SDS011;73596;49.482;11.238;2024-01-07T08:54:06;8.60;;;3.87;;
83634;SDS011;73596;49.482;11.238;2024-01-07T08:56:31;8.00;;;3.87;;
83634;SDS011;73596;49.482;11.238;2024-01-07T08:58:56;10.00;;;4.70;;
83634;SDS011;73596;49.482;11.238;2024-01-07T09:01:24;7.25;;;4.05;;
83634;SDS011;73596;49.482;11.238;2024-01-07T09:03:49;7.53;;;4.47;;
83634;SDS011;73596;49.482;11.238;2024-01-07T09:06:15;8.75;;;4.50;;
83634;SDS011;73596;49.482;11.238;2024-01-07T09:08:40;10.85;;;5.22;;
83634;SDS011;73596;49.482;11.238;2024-01-07T09:11:05;10.93;;;4.47;;
83634;SDS011;73596;49.482;11.238;2024-01-07T09:13:32;10.30;;;5.10;;
83634;SDS011;73596;49.482;11.238;2024-01-07T09:15:57;8.27;;;5.32;;
83634;SDS011;73596;49.482;11.238;2024-01-07T09:18:23;9.15;;;4.63;;
83634;SDS011;73596;49.482;11.238;2024-01-07T09:20:48;12.70;;;5.63;;
83634;SDS011;73596;49.482;11.238;2024-01-07T09:23:13;12.80;;;5.40;;
83634;SDS011;73596;49.482;11.238;2024-01-07T09:25:40;9.13;;;4.68;;
83634;SDS011;73596;49.482;11.238;2024-01-07T09:28:06;9.55;;;4.75;;
83634;SDS011;73596;49.482;11.238;2024-01-07T09:30:31;10.53;;;4.90;;
83634;SDS011;73596;49.482;11.238;2024-01-07T09:32:57;9.93;;;4.37;;
83634;SDS011;73596;49.482;11.238;2024-01-07T09:35:22;9.17;;;4.10;;
83634;SDS011;73596;49.482;11.238;2024-01-07T09:37:47;13.23;;;3.93;;
83634;SDS011;73596;49.482;11.238;2024-01-07T09:40:12;5.90;;;4.17;;
83634;SDS011;73596;49.482;11.238;2024-01-07T09:42:43;9.95;;;5.13;;
83634;SDS011;73596;49.482;11.238;2024-01-07T09:45:09;11.27;;;5.05;;
83634;SDS011;73596;49.482;11.238;2024-01-07T09:47:38;13.40;;;6.05;;
83634;SDS011;73596;49.482;11.238;2024-01-07T09:50:05;10.70;;;4.95;;
83634;SDS011;73596;49.482;11.238;2024-01-07T09:52:32;12.98;;;5.65;;
83634;SDS011;73596;49.482;11.238;2024-01-07T09:54:58;12.45;;;4.95;;
83634;SDS011;73596;49.482;11.238;2024-01-07T09:57:27;10.68;;;4.60;;
83634;SDS011;73596;49.482;11.238;2024-01-07T09:59:53;12.88;;;5.57;;
83634;SDS011;73596;49.482;11.238;2024-01-07T10:02:18;12.60;;;6.33;;
83634;SDS011;73596;49.482;11.238;2024-01-07T10:04:45;8.05;;;4.78;;
83634;SDS011;73596;49.482;11.238;2024-01-07T10:07:12;13.82;;;5.88;;
83634;SDS011;73596;49.482;11.238;2024-01-07T10:09:37;13.63;;;4.60;;
83634;SDS011;73596;49.482;11.238;2024-01-07T10:12:07;11.40;;;6.50;;
83634;SDS011;73596;49.482;11.238;2024-01-07T10:14:32;10.88;;;5.65;;
83634;SDS011;73596;49.482;11.238;2024-01-07T10:16:58;10.52;;;5.05;;
83634;SDS011;73596;49.482;11.238;2024-01-07T10:19:24;15.63;;;5.78;;
83634;SDS011;73596;49.482;11.238;2024-01-07T10:22:03;9.52;;;4.95;;
83634;SDS011;73596;49.482;11.238;2024-01-07T10:24:36;10.52;;;4.80;;
83634;SDS011;73596;49.482;11.238;2024-01-07T10:27:03;11.73;;;4.97;;
83634;SDS011;73596;49.482;11.238;2024-01-07T10:29:29;10.75;;;5.18;;
83634;SDS011;73596;49.482;11.238;2024-01-07T10:32:01;11.67;;;4.20;;
83634;SDS011;73596;49.482;11.238;2024-01-07T10:34:29;10.82;;;5.70;;
83634;SDS011;73596;49.482;11.238;2024-01-07T10:36:56;14.23;;;5.63;;
83634;SDS011;73596;49.482;11.238;2024-01-07T10:39:24;12.32;;;5.47;;
83634;SDS011;73596;49.482;11.238;2024-01-07T10:41:50;10.18;;;5.03;;
83634;SDS011;73596;49.482;11.238;2024-01-07T10:44:18;10.60;;;5.07;;
83634;SDS011;73596;49.482;11.238;2024-01-07T10:46:44;10.80;;;4.57;;
83634;SDS011;73596;49.482;11.238;2024-01-07T10:49:15;9.50;;;4.45;;
83634;SDS011;73596;49.482;11.238;2024-01-07T10:51:45;9.82;;;4.75;;
83634;SDS011;73596;49.482;11.238;2024-01-07T10:54:19;11.85;;;6.07;;
83634;SDS011;73596;49.482;11.238;2024-01-07T10:56:48;8.20;;;4.65;;
83634;SDS011;73596;49.482;11.238;2024-01-07T10:59:15;9.23;;;4.13;;
83634;SDS011;73596;49.482;11.238;2024-01-07T11:01:42;9.93;;;4.32;;
83634;SDS011;73596;49.482;11.238;2024-01-07T11:04:10;13.13;;;6.15;;
83634;SDS011;73596;49.482;11.238;2024-01-07T11:12:01;10.07;;;5.07;;
83634;SDS011;73596;49.482;11.238;2024-01-07T11:14:36;13.80;;;5.47;;
83634;SDS011;73596;49.482;11.238;2024-01-07T11:17:04;8.25;;;4.82;;
83634;SDS011;73596;49.482;11.238;2024-01-07T11:19:33;10.80;;;4.22;;
83634;SDS011;73596;49.482;11.238;2024-01-07T11:24:55;13.73;;;5.32;;
83634;SDS011;73596;49.482;11.238;2024-01-07T11:27:28;8.75;;;5.75;;
83634;SDS011;73596;49.482;11.238;2024-01-07T11:29:56;10.23;;;4.88;;
83634;SDS011;73596;49.482;11.238;2024-01-07T11:32:28;11.38;;;5.05;;
83634;SDS011;73596;49.482;11.238;2024-01-07T11:34:54;13.13;;;5.45;;
83634;SDS011;73596;49.482;11.238;2024-01-07T11:37:24;10.65;;;5.47;;
83634;SDS011;73596;49.482;11.238;2024-01-07T11:39:51;12.02;;;5.07;;
83634;SDS011;73596;49.482;11.238;2024-01-07T11:42:18;9.88;;;4.63;;
83634;SDS011;73596;49.482;11.238;2024-01-07T11:44:47;11.35;;;5.07;;
83634;SDS011;73596;49.482;11.238;2024-01-07T11:47:19;9.77;;;4.85;;
83634;SDS011;73596;49.482;11.238;2024-01-07T11:49:46;12.15;;;5.18;;
83634;SDS011;73596;49.482;11.238;2024-01-07T11:52:11;13.35;;;6.28;;
83634;SDS011;73596;49.482;11.238;2024-01-07T11:54:37;10.70;;;4.55;;
83634;SDS011;73596;49.482;11.238;2024-01-07T11:57:04;9.50;;;4.13;;
83634;SDS011;73596;49.482;11.238;2024-01-07T11:59:29;9.32;;;4.25;;
83634;SDS011;73596;49.482;11.238;2024-01-07T12:01:55;11.18;;;4.15;;
83634;SDS011;73596;49.482;11.238;2024-01-07T12:04:20;12.82;;;6.25;;
83634;SDS011;73596;49.482;11.238;2024-01-07T12:06:47;7.28;;;3.83;;
83634;SDS011;73596;49.482;11.238;2024-01-07T12:09:13;11.65;;;5.72;;
83634;SDS011;73596;49.482;11.238;2024-01-07T12:11:39;6.15;;;3.90;;
83634;SDS011;73596;49.482;11.238;2024-01-07T12:14:06;8.88;;;3.78;;
83634;SDS011;73596;49.482;11.238;2024-01-07T12:16:32;9.40;;;4.20;;
83634;SDS011;73596;49.482;11.238;2024-01-07T12:18:58;9.02;;;4.30;;
83634;SDS011;73596;49.482;11.238;2024-01-07T12:21:24;7.30;;;2.88;;
83634;SDS011;73596;49.482;11.238;2024-01-07T12:23:51;7.55;;;3.58;;
83634;SDS011;73596;49.482;11.238;2024-01-07T12:26:17;11.57;;;5.28;;
83634;SDS011;73596;49.482;11.238;2024-01-07T12:28:44;8.48;;;3.85;;
83634;SDS011;73596;49.482;11.238;2024-01-07T12:31:09;8.70;;;4.53;;
83634;SDS011;73596;49.482;11.238;2024-01-07T12:33:38;13.73;;;4.60;;
83634;SDS011;73596;49.482;11.238;2024-01-07T12:36:05;8.63;;;4.13;;
83634;SDS011;73596;49.482;11.238;2024-01-07T12:38:31;8.00;;;3.75;;
83634;SDS011;73596;49.482;11.238;2024-01-07T12:40:57;9.47;;;4.60;;
83634;SDS011;73596;49.482;11.238;2024-01-07T12:43:22;8.23;;;3.83;;
83634;SDS011;73596;49.482;11.238;2024-01-07T12:45:48;8.85;;;4.13;;
83634;SDS011;73596;49.482;11.238;2024-01-07T12:48:14;9.52;;;3.88;;
83634;SDS011;73596;49.482;11.238;2024-01-07T12:50:39;9.45;;;4.43;;
83634;SDS011;73596;49.482;11.238;2024-01-07T12:53:04;6.30;;;4.30;;
83634;SDS011;73596;49.482;11.238;2024-01-07T12:55:30;11.50;;;4.93;;
83634;SDS011;73596;49.482;11.238;2024-01-07T12:57:58;8.93;;;4.00;;
83634;SDS011;73596;49.482;11.238;2024-01-07T13:00:24;7.35;;;4.38;;
83634;SDS011;73596;49.482;11.238;2024-01-07T13:02:50;6.25;;;3.83;;
83634;SDS011;73596;49.482;11.238;2024-01-07T13:05:16;10.15;;;4.95;;
83634;SDS011;73596;49.482;11.238;2024-01-07T13:07:41;11.02;;;4.00;;
83634;SDS011;73596;49.482;11.238;2024-01-07T13:10:06;9.10;;;5.40;;
83634;SDS011;73596;49.482;11.238;2024-01-07T13:12:32;10.88;;;4.80;;
83634;SDS011;73596;49.482;11.238;2024-01-07T13:14:58;9.00;;;4.22;;
83634;SDS011;73596;49.482;11.238;2024-01-07T13:17:23;9.60;;;4.13;;
83634;SDS011;73596;49.482;11.238;2024-01-07T13:19:48;8.63;;;3.57;;
83634;SDS011;73596;49.482;11.238;2024-01-07T13:22:13;6.93;;;3.10;;
83634;SDS011;73596;49.482;11.238;2024-01-07T13:24:39;5.88;;;3.65;;
83634;SDS011;73596;49.482;11.238;2024-01-07T13:27:05;8.18;;;3.90;;
83634;SDS011;73596;49.482;11.238;2024-01-07T13:29:31;6.38;;;3.60;;
83634;SDS011;73596;49.482;11.238;2024-01-07T13:31:56;8.40;;;3.23;;
83634;SDS011;73596;49.482;11.238;2024-01-07T13:34:21;5.93;;;2.63;;
83634;SDS011;73596;49.482;11.238;2024-01-07T13:36:47;7.90;;;3.33;;
83634;SDS011;73596;49.482;11.238;2024-01-07T13:39:12;13.55;;;4.05;;
83634;SDS011;73596;49.482;11.238;2024-01-07T13:41:40;8.43;;;3.75;;
83634;SDS011;73596;49.482;11.238;2024-01-07T13:44:07;4.97;;;2.97;;
83634;SDS011;73596;49.482;11.238;2024-01-07T13:46:41;5.40;;;3.10;;
83634;SDS011;73596;49.482;11.238;2024-01-07T13:49:07;6.47;;;3.40;;
83634;SDS011;73596;49.482;11.238;2024-01-07T13:51:32;8.23;;;3.38;;
83634;SDS011;73596;49.482;11.238;2024-01-07T13:54:00;7.57;;;3.20;;
83634;SDS011;73596;49.482;11.238;2024-01-07T13:56:28;6.88;;;2.80;;
83634;SDS011;73596;49.482;11.238;2024-01-07T13:58:53;6.32;;;3.38;;
83634;SDS011;73596;49.482;11.238;2024-01-07T14:01:19;8.00;;;2.90;;
83634;SDS011;73596;49.482;11.238;2024-01-07T14:03:44;7.70;;;2.83;;
83634;SDS011;73596;49.482;11.238;2024-01-07T14:06:09;4.73;;;2.73;;
83634;SDS011;73596;49.482;11.238;2024-01-07T14:08:36;3.92;;;2.33;;
83634;SDS011;73596;49.482;11.238;2024-01-07T14:11:01;5.85;;;3.80;;
83634;SDS011;73596;49.482;11.238;2024-01-07T14:13:28;6.65;;;3.22;;
83634;SDS011;73596;49.482;11.238;2024-01-07T14:15:53;6.40;;;2.97;;
83634;SDS011;73596;49.482;11.238;2024-01-07T14:18:19;5.30;;;2.50;;
83634;SDS011;73596;49.482;11.238;2024-01-07T14:20:47;6.78;;;3.25;;
83634;SDS011;73596;49.482;11.238;2024-01-07T14:23:21;5.03;;;2.95;;
83634;SDS011;73596;49.482;11.238;2024-01-07T14:25:49;7.33;;;3.30;;
83634;SDS011;73596;49.482;11.238;2024-01-07T14:28:15;5.07;;;3.22;;
83634;SDS011;73596;49.482;11.238;2024-01-07T14:30:40;5.90;;;3.10;;